Aviation Digital Data Service (ADDS)

Output produced by METARs form (0111 UTC 21 October 2017)
found at http://www.aviationweather.gov/adds/metars/
 
KTVR 210053Z AUTO 10003KT 10SM CLR 21/17 A3006 RMK AO2 SLP187 T02110172
KTVR 202353Z AUTO 00000KT 10SM SCT055 21/18 A3007 RMK AO2 SLP188 T02110178 10278 20211 55003
KTVR 202253Z AUTO 07005KT 10SM CLR 24/16 A3007 RMK AO2 SLP187 T02440161
KTVR 202153Z AUTO 15009KT 10SM CLR 26/17 A3007 RMK AO2 SLP190 T02560167
KTVR 202053Z AUTO 13006KT 10SM CLR 26/17 A3008 RMK AO2 SLP190 T02610167 56022
KTVR 201953Z AUTO 15010KT 10SM CLR 26/16 A3008 RMK AO2 SLP191 T02610161
KTVR 201853Z AUTO 14011KT 10SM CLR 27/16 A3010 RMK AO2 SLP198 T02720161
KTVR 201753Z AUTO 12008KT 10SM CLR 26/16 A3014 RMK AO2 SLP212 T02560161 10261 20133 58022
KTVR 201653Z AUTO 14007KT 10SM CLR 24/16 A3019 RMK AO2 SLP228 T02440161
KTVR 201553Z AUTO 10006KT 10SM CLR 23/16 A3020 RMK AO2 SLP233 T02280161
KTVR 201453Z AUTO 10007KT 10SM CLR 20/16 A3020 RMK AO2 SLP235 T02000156 50005
KTVR 201353Z AUTO 12004KT 10SM CLR 18/15 A3021 RMK AO2 SLP237 T01780150
KTVR 201253Z AUTO 12004KT 10SM CLR 15/14 A3019 RMK AO2 SLP230 T01500139
KTVR 201153Z AUTO 12004KT 10SM CLR 14/13 A3019 RMK AO2 SLP230 T01390133 10167 20128 53006
KTVR 201053Z AUTO 00000KT 10SM CLR 13/13 A3019 RMK AO2 SLP229 T01280128
KTVR 200953Z AUTO 12004KT 10SM CLR 14/14 A3017 RMK AO2 SLP223 T01440139
KTVR 200853Z AUTO 10003KT 10SM CLR 14/14 A3017 RMK AO2 SLP222 T01440139 58004
KTVR 200753Z AUTO 12004KT 10SM CLR 15/14 A3018 RMK AO2 SLP224 T01500139
KTVR 200653Z AUTO 12004KT 10SM CLR 15/14 A3018 RMK AO2 SLP227 T01500139
KTVR 200553Z AUTO 12005KT 10SM CLR 15/14 A3018 RMK AO2 SLP228 T01500139 10172 20122 402610078 58001
KTVR 200453Z AUTO 00000KT 9SM CLR 13/13 A3019 RMK AO2 SLP229 T01330133
KTVR 200353Z AUTO 00000KT 3SM BR CLR 13/13 A3019 RMK AO2 SLP231 T01330133
KTVR 200253Z AUTO 00000KT 7SM CLR 13/13 A3019 RMK AO2 SLP229 T01330133 52010
KTVR 200153Z AUTO 00000KT 10SM CLR 14/14 A3017 RMK AO2 SLP225 T01440144
KTVR 200053Z AUTO 00000KT 10SM CLR 16/15 A3017 RMK AO2 SLP223 T01560150
KTVR 192353Z AUTO 00000KT 10SM CLR 17/16 A3016 RMK AO2 SLP218 T01720156 10261 20172 55000
KTVR 192253Z AUTO 08005KT 10SM CLR 24/13 A3015 RMK AO2 SLP217 T02440133
KTVR 192153Z AUTO 09007KT 10SM CLR 26/14 A3015 RMK AO2 SLP217 T02560139
KTVR 192053Z AUTO 08007KT 10SM CLR 26/13 A3016 RMK AO2 SLP219 T02610133 56022
KTVR 191953Z AUTO 07004KT 10SM CLR 26/13 A3017 RMK AO2 SLP222 T02560128
KTVR 191853Z AUTO 07005KT 10SM CLR 25/13 A3019 RMK AO2 SLP230 T02500128
KTVR 191753Z AUTO VRB03KT 10SM CLR 25/13 A3022 RMK AO2 SLP241 T02500133 10250 20089 58011
KTVR 191653Z AUTO 12005KT 10SM CLR 23/13 A3025 RMK AO2 SLP249 T02330133
KTVR 191553Z AUTO 08006KT 10SM CLR 23/12 A3026 RMK AO2 SLP252 T02280122
KTVR 191453Z AUTO 12006KT 10SM CLR 19/13 A3026 RMK AO2 SLP252 T01940133 52013
KTVR 191353Z AUTO 00000KT 10SM CLR 16/13 A3025 RMK AO2 SLP249 T01610133
KTVR 191253Z AUTO 00000KT 10SM CLR 12/11 A3023 RMK AO2 SLP243 T01220111
KTVR 191153Z AUTO 00000KT 10SM CLR 09/09 A3022 RMK AO2 SLP239 T00940089 10111 20078 52013
KTVR 191053Z AUTO 00000KT 7SM CLR 08/08 A3021 RMK AO2 SLP236 T00780078
KTVR 190953Z AUTO 00000KT 8SM CLR 08/08 A3019 RMK AO2 SLP229 T00830083
KTVR 190853Z AUTO 00000KT 10SM CLR 09/09 A3018 RMK AO2 SLP226 T00940094 55002
KTVR 190753Z AUTO 00000KT 10SM CLR 10/10 A3017 RMK AO2 SLP224 T01000100
KTVR 190653Z AUTO 00000KT 10SM CLR 10/10 A3018 RMK AO2 SLP226 T01000100
KTVR 190553Z AUTO 00000KT 10SM CLR 10/10 A3019 RMK AO2 SLP228 T01000100 10183 20100 402610067 58002
KTVR 190453Z AUTO 00000KT 10SM CLR 11/11 A3019 RMK AO2 SLP231 T01060106
KTVR 190353Z AUTO 00000KT 10SM CLR 12/12 A3021 RMK AO2 SLP235 T01170117
KTVR 190253Z AUTO 11004KT 10SM CLR 14/12 A3019 RMK AO2 SLP230 T01440117 51010
KTVR 190153Z AUTO 00000KT 10SM CLR 13/13 A3019 RMK AO2 SLP230 T01330128
KTVR 190053Z AUTO 03003KT 10SM CLR 15/14 A3019 RMK AO2 SLP228 T01500139
KTVR 182353Z AUTO 09003KT 10SM CLR 19/13 A3016 RMK AO2 SLP220 T01890128 10261 20189 53003
KTVR 182253Z AUTO 09006KT 10SM CLR 23/12 A3015 RMK AO2 SLP217 T02280122
KTVR 182153Z AUTO VRB05KT 10SM CLR 25/12 A3015 RMK AO2 SLP216 T02500117
KTVR 182053Z AUTO 06006KT 10SM CLR 26/11 A3015 RMK AO2 SLP217 T02560111 56024
KTVR 181953Z AUTO 07005KT 10SM CLR 25/12 A3016 RMK AO2 SLP221 T02500117
KTVR 181853Z AUTO 07006KT 10SM CLR 24/12 A3019 RMK AO2 SLP229 T02390122
KTVR 181753Z AUTO 03006KT 10SM CLR 24/12 A3022 RMK AO2 SLP240 T02390117 10239 20067 58008
KTVR 181653Z AUTO 17008KT 10SM CLR 22/11 A3024 RMK AO2 SLP248 T02170111
KTVR 181553Z AUTO VRB06KT 10SM CLR 21/11 A3025 RMK AO2 SLP250 T02060106
KTVR 181453Z AUTO 11006KT 10SM CLR 18/11 A3025 RMK AO2 SLP249 T01780111 52008
KTVR 181353Z AUTO 12005KT 10SM CLR 14/11 A3024 RMK AO2 SLP247 T01440111
KTVR 181253Z AUTO 00000KT 7SM CLR 09/09 A3023 RMK AO2 SLP243 T00940094
KTVR 181220Z AUTO 00000KT 3SM BR CLR 08/08 A3022 RMK AO2 T00830078
KTVR 181212Z AUTO 00000KT 1 3/4SM BR CLR 08/08 A3022 RMK AO2 T00780078
KTVR 181153Z AUTO 12003KT 10SM CLR 07/07 A3022 RMK AO2 SLP241 T00720072 10133 20072 53005
KTVR 181053Z AUTO 00000KT 5SM BR CLR 07/07 A3022 RMK AO2 SLP240 T00720072
KTVR 180953Z AUTO 15003KT 9SM CLR 07/07 A3021 RMK AO2 SLP237 T00720072
KTVR 180853Z AUTO 00000KT 9SM CLR 08/08 A3021 RMK AO2 SLP236 T00830083 50000
KTVR 180753Z AUTO 00000KT 10SM CLR 09/09 A3022 RMK AO2 SLP238 T00940094
KTVR 180653Z AUTO 12003KT 10SM CLR 13/11 A3021 RMK AO2 SLP237 T01280106
KTVR 180553Z AUTO 08004KT 10SM CLR 13/11 A3021 RMK AO2 SLP236 T01280106 10161 20111 402440078 53003
KTVR 180453Z AUTO 10004KT 10SM CLR 13/11 A3021 RMK AO2 SLP235 T01280111
KTVR 180353Z AUTO 12005KT 10SM CLR 14/12 A3020 RMK AO2 SLP233 T01390117
KTVR 180253Z AUTO 00000KT 10SM CLR 12/12 A3020 RMK AO2 SLP233 T01170117 51010
KTVR 180153Z AUTO 00000KT 10SM CLR 12/12 A3019 RMK AO2 SLP230 T01220122